createdAt,value
2019-03-20T00:00:41.016Z,48.95
2019-03-20T00:01:49.001Z,49.14
2019-03-20T00:02:56.991Z,49.27
2019-03-20T00:04:05.571Z,49.28
2019-03-20T00:05:13.967Z,49.11
2019-03-20T00:06:22.201Z,49.35
2019-03-20T00:07:30.186Z,49.33
2019-03-20T00:08:38.089Z,49.16
2019-03-20T00:09:46.233Z,49.13
2019-03-20T00:10:54.480Z,49.24
2019-03-20T00:12:02.574Z,49.22
2019-03-20T00:13:10.837Z,48.72
2019-03-20T00:14:18.950Z,48.98
2019-03-20T00:15:26.829Z,49.05
2019-03-20T00:16:34.938Z,49.19
2019-03-20T00:17:42.980Z,49.27
2019-03-20T00:18:50.977Z,49.36
2019-03-20T00:19:58.999Z,49.89
2019-03-20T00:21:07.053Z,49.96
2019-03-20T00:22:15.033Z,49.99
2019-03-20T00:23:23.148Z,50.02
2019-03-20T00:24:31.121Z,50.09
2019-03-20T00:25:39.018Z,49.92
2019-03-20T00:26:47.136Z,50.01
2019-03-20T00:27:55.089Z,49.74
2019-03-20T00:29:03.051Z,49.55
2019-03-20T00:30:19.310Z,49.57
2019-03-20T00:31:27.178Z,49.39
2019-03-20T00:32:35.430Z,49.48
2019-03-20T00:33:43.757Z,49.66
2019-03-20T00:35:00.561Z,49.93
2019-03-20T00:36:01.256Z,49.84
2019-03-20T00:37:09.481Z,49.86
2019-03-20T00:38:17.483Z,49.61
2019-03-20T00:39:25.334Z,49.53
2019-03-20T00:40:33.315Z,49.44
2019-03-20T00:41:41.401Z,49.35
2019-03-20T00:42:49.419Z,49.14
2019-03-20T00:43:57.344Z,49.21
2019-03-20T00:45:07.840Z,49.07
2019-03-20T00:46:15.904Z,49.97
2019-03-20T00:47:23.896Z,50.01
2019-03-20T00:48:31.976Z,49.96
2019-03-20T00:49:40.044Z,49.89
2019-03-20T00:50:48.124Z,49.74
2019-03-20T00:51:56.234Z,49.73
2019-03-20T00:53:04.645Z,49.69
2019-03-20T00:54:12.614Z,49.49
2019-03-20T00:55:21.204Z,49.39
2019-03-20T00:56:29.167Z,49.31
2019-03-20T00:57:37.173Z,49.38
2019-03-20T00:58:45.021Z,49.34
2019-03-20T00:59:52.910Z,49.35
2019-03-20T01:01:01.092Z,49.31
2019-03-20T01:02:09.002Z,49.37
2019-03-20T01:03:17.154Z,49.57
2019-03-20T01:04:25.172Z,49.63
2019-03-20T01:05:33.318Z,49.76
2019-03-20T01:06:41.364Z,49.78
2019-03-20T01:07:49.768Z,49.74
2019-03-20T01:08:57.972Z,49.65
2019-03-20T01:10:10.585Z,49.51
2019-03-20T01:11:18.718Z,49.54
2019-03-20T01:12:27.141Z,49.42
2019-03-20T01:13:35.090Z,49.47
2019-03-20T01:14:43.041Z,49.69
2019-03-20T01:15:51.197Z,49.84
2019-03-20T01:16:59.027Z,50.06
2019-03-20T01:18:07.141Z,50.19
2019-03-20T01:19:15.384Z,50.09
2019-03-20T01:20:24.814Z,49.96
2019-03-20T01:21:32.766Z,49.97
2019-03-20T01:22:40.602Z,49.93
2019-03-20T01:23:48.560Z,49.77
2019-03-20T01:24:56.490Z,49.84
2019-03-20T01:26:04.678Z,49.97
2019-03-20T01:27:13.168Z,49.97
2019-03-20T01:28:21.184Z,49.91
2019-03-20T01:29:29.158Z,49.95
2019-03-20T01:30:37.694Z,50.09
2019-03-20T01:31:45.741Z,50.15
2019-03-20T01:32:53.711Z,49.98
2019-03-20T01:34:01.706Z,49.99
2019-03-20T01:35:09.872Z,49.82
2019-03-20T01:36:18.272Z,49.85
2019-03-20T01:37:26.634Z,49.79
2019-03-20T01:38:34.786Z,49.95
2019-03-20T01:39:43.261Z,50.00
2019-03-20T01:40:51.454Z,50.02
2019-03-20T01:41:59.684Z,50.15
2019-03-20T01:43:07.938Z,50.21
2019-03-20T01:44:16.252Z,50.17
2019-03-20T01:45:24.251Z,50.02
2019-03-20T01:46:32.437Z,50.11
2019-03-20T01:47:40.397Z,50.09
2019-03-20T01:48:48.462Z,50.25
2019-03-20T01:49:56.541Z,50.16
2019-03-20T01:51:19.707Z,50.37
2019-03-20T01:52:27.717Z,50.20
2019-03-20T01:53:35.836Z,50.23
2019-03-20T01:54:43.651Z,50.11
2019-03-20T01:55:51.521Z,50.27
2019-03-20T01:56:59.471Z,50.20
2019-03-20T01:58:07.595Z,50.17
2019-03-20T01:59:15.707Z,50.35
2019-03-20T02:00:23.904Z,50.25
2019-03-20T02:01:31.850Z,50.03
2019-03-20T02:02:40.153Z,50.12
2019-03-20T02:03:48.378Z,50.23
2019-03-20T02:04:56.651Z,50.31
2019-03-20T02:06:04.761Z,50.39
2019-03-20T02:07:12.779Z,50.46
2019-03-20T02:08:20.851Z,50.54
2019-03-20T02:09:28.955Z,50.33
2019-03-20T02:10:37.043Z,50.34
2019-03-20T02:11:45.133Z,50.44
2019-03-20T02:12:53.139Z,50.49
2019-03-20T02:14:01.081Z,50.58
2019-03-20T02:15:14.084Z,50.68
2019-03-20T02:16:22.036Z,51.13
2019-03-20T02:17:30.022Z,51.07
2019-03-20T02:18:38.158Z,51.18
2019-03-20T02:19:46.132Z,51.25
2019-03-20T02:20:54.584Z,51.12
2019-03-20T02:22:02.399Z,50.97
2019-03-20T02:23:10.398Z,50.92
2019-03-20T02:24:19.022Z,50.73
2019-03-20T02:25:27.048Z,50.66
2019-03-20T02:26:35.309Z,50.52
2019-03-20T02:27:43.406Z,50.50
2019-03-20T02:28:51.407Z,50.79
2019-03-20T02:29:59.602Z,50.70
2019-03-20T02:31:07.805Z,50.94
2019-03-20T02:32:15.835Z,51.11
2019-03-20T02:33:24.318Z,51.46
2019-03-20T02:34:32.397Z,51.53
2019-03-20T02:35:51.243Z,51.49
2019-03-20T02:36:50.245Z,51.45
2019-03-20T02:37:58.205Z,51.43
2019-03-20T02:39:08.290Z,51.66
2019-03-20T02:40:17.593Z,51.54
2019-03-20T02:41:25.487Z,51.37
2019-03-20T02:42:33.521Z,51.33
2019-03-20T02:43:41.616Z,51.17
2019-03-20T02:44:49.884Z,51.44
2019-03-20T02:45:57.895Z,51.64
2019-03-20T02:47:06.077Z,51.94
2019-03-20T02:48:14.092Z,51.95
2019-03-20T02:49:22.776Z,52.01
2019-03-20T02:50:30.975Z,52.20
2019-03-20T02:51:38.827Z,52.15
2019-03-20T02:52:46.617Z,51.89
2019-03-20T02:53:54.802Z,51.89
2019-03-20T02:55:02.854Z,51.86
2019-03-20T02:56:11.502Z,52.19
2019-03-20T02:57:20.052Z,52.40
2019-03-20T02:58:28.373Z,52.61
2019-03-20T02:59:36.296Z,52.76
2019-03-20T03:00:44.478Z,52.66
2019-03-20T03:01:52.771Z,52.58
2019-03-20T03:03:00.866Z,52.69
2019-03-20T03:04:09.249Z,52.75
2019-03-20T03:05:17.790Z,52.57
2019-03-20T03:06:25.996Z,52.62
2019-03-20T03:07:34.430Z,52.78
2019-03-20T03:08:42.440Z,52.68
2019-03-20T03:09:50.466Z,52.75
2019-03-20T03:10:58.541Z,52.85
2019-03-20T03:12:06.783Z,52.78
2019-03-20T03:13:15.078Z,52.75
2019-03-20T03:14:23.019Z,53.05
2019-03-20T03:15:31.348Z,53.02
2019-03-20T03:16:39.219Z,53.16
2019-03-20T03:17:47.160Z,53.32
2019-03-20T03:18:55.255Z,53.79
2019-03-20T03:20:03.763Z,53.57
2019-03-20T03:21:11.901Z,53.56
2019-03-20T03:22:20.069Z,53.69
2019-03-20T03:23:28.372Z,53.56
2019-03-20T03:24:36.867Z,53.54
2019-03-20T03:25:45.060Z,53.53
2019-03-20T03:26:55.628Z,53.46
2019-03-20T03:28:03.707Z,53.57
2019-03-20T03:29:11.691Z,53.48
2019-03-20T03:30:20.435Z,53.52
2019-03-20T03:31:29.132Z,53.50
2019-03-20T03:32:37.293Z,53.39
2019-03-20T03:33:45.523Z,53.14
2019-03-20T03:34:53.316Z,52.98
2019-03-20T03:36:02.025Z,52.80
2019-03-20T03:37:10.128Z,52.79
2019-03-20T03:38:18.235Z,52.77
2019-03-20T03:39:26.539Z,52.76
2019-03-20T03:40:34.580Z,52.84
2019-03-20T03:41:42.618Z,52.92
2019-03-20T03:42:50.704Z,52.83
2019-03-20T03:43:58.920Z,52.84
2019-03-20T03:45:11.343Z,52.72
2019-03-20T03:46:19.508Z,52.60
2019-03-20T03:47:27.830Z,53.04
2019-03-20T03:48:36.026Z,53.10
2019-03-20T03:49:44.108Z,53.01
2019-03-20T03:50:52.290Z,52.87
2019-03-20T03:52:00.355Z,52.84
2019-03-20T03:53:08.501Z,52.65
2019-03-20T03:54:16.578Z,53.01
2019-03-20T03:55:24.819Z,53.29
2019-03-20T03:56:32.786Z,53.61
2019-03-20T03:57:41.150Z,53.99
2019-03-20T03:58:49.084Z,54.05
2019-03-20T03:59:57.290Z,54.09
2019-03-20T04:01:05.495Z,54.18
2019-03-20T04:02:13.418Z,54.12
2019-03-20T04:03:23.941Z,54.03
2019-03-20T04:04:32.136Z,53.91
2019-03-20T04:05:40.432Z,54.01
2019-03-20T04:06:48.946Z,54.04
2019-03-20T04:07:57.646Z,54.61
2019-03-20T04:09:08.107Z,54.49
2019-03-20T04:10:17.953Z,54.66
2019-03-20T04:11:26.292Z,54.40
2019-03-20T04:12:34.229Z,54.69
2019-03-20T04:13:43.193Z,54.80
2019-03-20T04:14:51.193Z,55.08
2019-03-20T04:15:59.398Z,55.10
2019-03-20T04:17:22.284Z,55.07
2019-03-20T04:18:30.802Z,55.32
2019-03-20T04:19:39.000Z,55.58
2019-03-20T04:20:47.085Z,55.75
2019-03-20T04:21:54.976Z,56.14
2019-03-20T04:23:02.998Z,56.18
2019-03-20T04:24:11.269Z,56.23
2019-03-20T04:25:19.886Z,56.13
2019-03-20T04:26:28.065Z,56.38
2019-03-20T04:27:35.935Z,56.13
2019-03-20T04:28:43.977Z,55.92
2019-03-20T04:29:51.869Z,56.09
2019-03-20T04:30:59.867Z,56.48
2019-03-20T04:32:07.900Z,56.56
2019-03-20T04:33:16.209Z,56.60
2019-03-20T04:34:24.452Z,57.01
2019-03-20T04:35:32.463Z,56.87
2019-03-20T04:36:47.723Z,56.72
2019-03-20T04:37:50.605Z,56.89
2019-03-20T04:38:58.423Z,56.56
2019-03-20T04:40:16.619Z,56.93
2019-03-20T04:41:24.638Z,56.97
2019-03-20T04:42:33.023Z,57.01
2019-03-20T04:43:41.125Z,56.97
2019-03-20T04:44:49.171Z,57.02
2019-03-20T04:45:57.358Z,57.16
2019-03-20T04:47:05.455Z,57.27
2019-03-20T04:48:13.618Z,57.28
2019-03-20T04:49:22.000Z,57.07
2019-03-20T04:50:30.305Z,56.98
2019-03-20T04:51:38.458Z,57.22
2019-03-20T04:52:46.507Z,57.22
2019-03-20T04:53:54.553Z,57.27
2019-03-20T04:55:02.572Z,57.19
2019-03-20T04:56:10.691Z,57.01
2019-03-20T04:57:19.195Z,56.77
2019-03-20T04:58:27.376Z,56.71
2019-03-20T04:59:35.325Z,56.60
2019-03-20T05:00:43.504Z,56.47
2019-03-20T05:01:51.570Z,56.25
2019-03-20T05:03:01.063Z,55.92
2019-03-20T05:04:09.472Z,55.78
2019-03-20T05:05:17.827Z,55.80
2019-03-20T05:06:25.923Z,55.62
2019-03-20T05:07:34.180Z,55.57
2019-03-20T05:08:42.317Z,55.32
2019-03-20T05:09:50.414Z,55.18
2019-03-20T05:10:58.402Z,55.08
2019-03-20T05:12:06.512Z,54.91
2019-03-20T05:13:14.687Z,54.97
2019-03-20T05:14:22.979Z,54.84
2019-03-20T05:15:31.176Z,54.69
2019-03-20T05:16:39.308Z,55.07
2019-03-20T05:17:47.293Z,55.06
2019-03-20T05:18:55.258Z,55.20
2019-03-20T05:20:03.400Z,55.18
2019-03-20T05:21:11.588Z,55.10
2019-03-20T05:22:19.584Z,54.98
2019-03-20T05:23:27.964Z,54.95
2019-03-20T05:24:36.565Z,54.82
2019-03-20T05:25:44.480Z,54.85
2019-03-20T05:26:52.592Z,54.75
2019-03-20T05:28:00.764Z,55.00
2019-03-20T05:29:08.757Z,55.17
2019-03-20T05:30:17.653Z,55.09
2019-03-20T05:31:26.201Z,54.86
2019-03-20T05:32:34.820Z,54.86
2019-03-20T05:33:42.894Z,54.73
2019-03-20T05:34:50.703Z,54.64
2019-03-20T05:35:58.914Z,54.65
2019-03-20T05:37:10.680Z,54.63
2019-03-20T05:38:17.451Z,54.75
2019-03-20T05:39:25.856Z,54.78
2019-03-20T05:40:34.216Z,57.04
2019-03-20T05:41:42.346Z,55.14
2019-03-20T05:42:50.836Z,54.23
2019-03-20T05:43:59.269Z,53.90
2019-03-20T05:45:11.381Z,53.70
2019-03-20T05:46:19.445Z,53.62
2019-03-20T05:47:27.632Z,53.41
2019-03-20T05:48:35.557Z,53.24
2019-03-20T05:49:44.663Z,53.15
2019-03-20T05:50:52.759Z,53.24
2019-03-20T05:52:00.851Z,53.37
2019-03-20T05:53:08.933Z,53.26
2019-03-20T05:54:16.858Z,53.14
2019-03-20T05:55:24.836Z,53.16
2019-03-20T05:56:33.544Z,53.12
2019-03-20T05:57:41.847Z,53.21
2019-03-20T05:58:50.144Z,53.21
2019-03-20T05:59:58.511Z,53.12
2019-03-20T06:01:06.731Z,53.18
2019-03-20T06:02:14.976Z,52.97
2019-03-20T06:03:23.154Z,52.93
2019-03-20T06:04:31.235Z,53.33
2019-03-20T06:05:40.414Z,53.51
2019-03-20T06:06:48.437Z,53.24
2019-03-20T06:07:56.769Z,53.00
2019-03-20T06:09:06.269Z,52.99
2019-03-20T06:10:17.135Z,53.14
2019-03-20T06:11:25.260Z,52.99
2019-03-20T06:12:34.464Z,53.04
2019-03-20T06:13:42.595Z,53.03
2019-03-20T06:14:52.058Z,53.24
2019-03-20T06:16:00.125Z,53.39
2019-03-20T06:17:08.329Z,53.01
2019-03-20T06:18:16.623Z,52.56
2019-03-20T06:19:24.811Z,52.63
2019-03-20T06:20:33.906Z,52.63
2019-03-20T06:21:42.129Z,52.58
2019-03-20T06:22:50.144Z,52.69
2019-03-20T06:23:58.639Z,53.04
2019-03-20T06:25:09.796Z,53.19
2019-03-20T06:26:18.224Z,52.71
2019-03-20T06:27:26.400Z,52.56
2019-03-20T06:28:35.086Z,52.42
2019-03-20T06:29:43.414Z,52.60
2019-03-20T06:30:51.521Z,52.50
2019-03-20T06:31:59.414Z,52.24
2019-03-20T06:33:07.806Z,52.42
2019-03-20T06:34:16.114Z,51.87
2019-03-20T06:35:24.422Z,51.99
2019-03-20T06:36:32.484Z,51.97
2019-03-20T06:37:40.765Z,52.04
2019-03-20T06:38:49.185Z,52.17
2019-03-20T06:39:57.309Z,52.34
2019-03-20T06:41:06.027Z,52.61
2019-03-20T06:42:14.410Z,52.48
2019-03-20T06:43:22.485Z,52.42
2019-03-20T06:44:30.940Z,52.43
2019-03-20T06:45:39.757Z,52.17
2019-03-20T06:46:48.237Z,52.05
2019-03-20T06:47:56.483Z,52.13
2019-03-20T06:49:04.954Z,52.05
2019-03-20T06:50:15.945Z,52.09
2019-03-20T06:51:24.084Z,51.69
2019-03-20T06:52:32.106Z,51.60
2019-03-20T06:53:40.631Z,51.80
2019-03-20T06:54:48.679Z,51.74
2019-03-20T06:55:56.638Z,51.48
2019-03-20T06:57:04.825Z,51.42
2019-03-20T06:58:13.193Z,51.46
2019-03-20T06:59:31.407Z,51.69
2019-03-20T07:00:52.532Z,51.43
2019-03-20T07:02:05.359Z,51.56
2019-03-20T07:03:39.207Z,51.53
2019-03-20T07:05:17.048Z,51.18
2019-03-20T07:06:50.903Z,51.12
2019-03-20T07:07:58.673Z,50.47
2019-03-20T07:09:22.798Z,50.91
2019-03-20T07:11:00.764Z,50.99
2019-03-20T07:12:09.111Z,50.73
2019-03-20T07:13:17.541Z,51.04
2019-03-20T07:14:25.544Z,51.19
2019-03-20T07:15:33.631Z,51.30
2019-03-20T07:16:41.749Z,50.85
2019-03-20T07:17:50.008Z,50.88
2019-03-20T07:18:58.061Z,50.87
2019-03-20T07:20:10.398Z,50.49
2019-03-20T07:21:18.850Z,50.23
2019-03-20T07:22:27.017Z,49.88
2019-03-20T07:23:35.426Z,50.12
2019-03-20T07:24:43.488Z,50.12
2019-03-20T07:25:51.582Z,50.32
2019-03-20T07:26:59.827Z,49.92
2019-03-20T07:28:08.205Z,49.75
2019-03-20T07:29:16.469Z,49.27
2019-03-20T07:30:24.604Z,48.87
2019-03-20T07:31:32.825Z,48.55
2019-03-20T07:32:40.969Z,49.29
2019-03-20T07:33:49.079Z,49.39
2019-03-20T07:34:57.415Z,49.33
2019-03-20T07:36:05.526Z,49.52
2019-03-20T07:37:14.536Z,48.43
2019-03-20T07:38:22.501Z,48.89
2019-03-20T07:39:30.707Z,49.13
2019-03-20T07:40:38.942Z,49.08
2019-03-20T07:41:47.133Z,48.66
2019-03-20T07:42:55.159Z,48.76
2019-03-20T07:44:03.059Z,48.99
2019-03-20T07:45:11.970Z,48.76
2019-03-20T07:46:19.964Z,48.85
2019-03-20T07:47:28.240Z,48.53
2019-03-20T07:48:36.482Z,48.40
2019-03-20T07:49:44.534Z,48.10
2019-03-20T07:50:52.690Z,47.54
2019-03-20T07:52:00.778Z,47.68
2019-03-20T07:53:08.932Z,47.29
2019-03-20T07:54:16.883Z,47.18
2019-03-20T07:55:25.156Z,47.12
2019-03-20T07:56:33.501Z,47.43
2019-03-20T07:57:41.703Z,47.32
2019-03-20T07:58:49.783Z,47.00
2019-03-20T07:59:57.773Z,47.00
2019-03-20T08:01:06.048Z,46.38
2019-03-20T08:02:14.795Z,45.62
2019-03-20T08:03:22.763Z,44.91
2019-03-20T08:04:30.879Z,45.62
2019-03-20T08:05:38.786Z,45.68
2019-03-20T08:06:47.011Z,45.45
2019-03-20T08:08:06.429Z,45.89
2019-03-20T08:09:07.272Z,46.09
2019-03-20T08:10:18.662Z,46.34
2019-03-20T08:11:26.592Z,46.02
2019-03-20T08:12:34.546Z,45.58
2019-03-20T08:13:43.039Z,45.07
2019-03-20T08:14:50.882Z,45.64
2019-03-20T08:15:58.943Z,45.88
2019-03-20T08:17:07.031Z,45.92
2019-03-20T08:18:15.236Z,45.19
2019-03-20T08:19:23.428Z,45.87
2019-03-20T08:20:32.457Z,45.54
2019-03-20T08:21:40.441Z,44.87
2019-03-20T08:22:48.441Z,44.91
2019-03-20T08:23:56.640Z,44.90
2019-03-20T08:25:06.524Z,45.00
2019-03-20T08:26:14.625Z,45.28
2019-03-20T08:27:22.662Z,44.33
2019-03-20T08:28:30.886Z,43.85
2019-03-20T08:29:38.911Z,43.25
2019-03-20T08:30:46.961Z,44.03
2019-03-20T08:31:55.184Z,44.39
2019-03-20T08:33:03.480Z,43.36
2019-03-20T08:34:11.580Z,43.27
2019-03-20T08:35:19.814Z,42.29
2019-03-20T08:36:27.955Z,43.09
2019-03-20T08:37:36.260Z,42.91
2019-03-20T08:38:44.561Z,44.14
2019-03-20T08:39:52.861Z,43.12
2019-03-20T08:41:01.023Z,42.34
2019-03-20T08:42:09.475Z,42.56
2019-03-20T08:43:18.073Z,42.29
2019-03-20T08:44:26.425Z,41.50
2019-03-20T08:45:34.685Z,41.62
2019-03-20T08:46:43.080Z,41.98
2019-03-20T08:47:51.233Z,42.14
2019-03-20T08:48:59.286Z,41.71
2019-03-20T08:50:12.134Z,41.96
2019-03-20T08:51:20.088Z,41.54
2019-03-20T08:52:28.632Z,41.32
2019-03-20T08:53:37.308Z,41.45
2019-03-20T08:54:45.292Z,41.46
2019-03-20T08:55:53.430Z,41.12
2019-03-20T08:57:02.325Z,41.31
2019-03-20T08:58:10.936Z,41.13
2019-03-20T08:59:18.923Z,41.00
2019-03-20T09:00:27.366Z,40.10
2019-03-20T09:01:35.514Z,41.15
2019-03-20T09:02:43.757Z,39.19
2019-03-20T09:03:52.011Z,38.72
2019-03-20T09:05:00.530Z,39.52
2019-03-20T09:06:08.592Z,37.76
2019-03-20T09:07:17.010Z,38.67
2019-03-20T09:08:29.255Z,39.18
2019-03-20T09:09:34.797Z,38.57
2019-03-20T09:10:43.252Z,38.96
2019-03-20T09:11:51.444Z,39.39
2019-03-20T09:12:59.493Z,38.75
2019-03-20T09:14:07.538Z,38.80
2019-03-20T09:15:19.988Z,38.56
2019-03-20T09:16:27.865Z,38.08
2019-03-20T09:17:36.191Z,38.17
2019-03-20T09:18:44.443Z,38.22
2019-03-20T09:19:52.457Z,38.15
2019-03-20T09:21:00.782Z,37.72
2019-03-20T09:22:08.823Z,37.57
2019-03-20T09:23:17.033Z,36.81
2019-03-20T09:24:25.233Z,36.98
2019-03-20T09:25:33.358Z,37.34
2019-03-20T09:26:41.530Z,36.58
2019-03-20T09:27:49.730Z,36.63
2019-03-20T09:28:57.578Z,36.88
2019-03-20T09:30:09.390Z,36.77
2019-03-20T09:31:17.798Z,36.06
2019-03-20T09:32:26.205Z,36.51
2019-03-20T09:33:34.408Z,37.33
2019-03-20T09:34:42.418Z,37.01
2019-03-20T09:35:50.403Z,37.20
2019-03-20T09:36:58.582Z,37.47
2019-03-20T09:38:06.983Z,37.04
2019-03-20T09:39:15.038Z,37.27
2019-03-20T09:40:24.850Z,36.37
2019-03-20T09:41:32.859Z,36.36
2019-03-20T09:42:41.276Z,37.59
2019-03-20T09:43:49.646Z,37.16
2019-03-20T09:44:57.908Z,35.98
2019-03-20T09:46:06.157Z,36.50
2019-03-20T09:47:14.414Z,34.90
2019-03-20T09:48:22.721Z,35.78
2019-03-20T09:49:31.132Z,36.18
2019-03-20T09:50:39.158Z,34.78
2019-03-20T09:51:47.419Z,35.67
2019-03-20T09:52:55.545Z,34.03
2019-03-20T09:54:03.731Z,33.89
2019-03-20T09:55:16.801Z,33.25
2019-03-20T09:56:25.210Z,33.42
2019-03-20T09:57:33.344Z,32.82
2019-03-20T09:58:41.547Z,33.09
2019-03-20T09:59:49.753Z,33.63
2019-03-20T10:00:58.158Z,33.18
2019-03-20T10:02:06.218Z,32.91
2019-03-20T10:03:14.301Z,32.43
2019-03-20T10:04:22.461Z,32.12
2019-03-20T10:05:30.861Z,32.39
2019-03-20T10:06:39.146Z,31.49
2019-03-20T10:07:47.683Z,31.48
2019-03-20T10:08:55.862Z,32.10
2019-03-20T10:10:05.442Z,33.19
2019-03-20T10:11:13.519Z,33.05
2019-03-20T10:12:21.679Z,33.22
2019-03-20T10:13:29.887Z,33.22
2019-03-20T10:14:38.191Z,31.96
2019-03-20T10:15:46.268Z,31.48
2019-03-20T10:16:54.232Z,30.49
2019-03-20T10:18:02.591Z,30.12
2019-03-20T10:19:11.208Z,31.17
2019-03-20T10:20:21.247Z,31.27
2019-03-20T10:21:29.255Z,31.30
2019-03-20T10:22:39.008Z,30.88
2019-03-20T10:23:47.322Z,31.03
2019-03-20T10:24:55.629Z,31.16
2019-03-20T10:26:03.762Z,30.63
2019-03-20T10:27:12.099Z,29.56
2019-03-20T10:28:20.215Z,29.72
2019-03-20T10:29:28.224Z,30.03
2019-03-20T10:30:36.667Z,29.75
2019-03-20T10:31:45.059Z,29.75
2019-03-20T10:32:53.270Z,29.26
2019-03-20T10:34:01.262Z,29.26
2019-03-20T10:35:10.612Z,29.24
2019-03-20T10:36:18.811Z,29.06
2019-03-20T10:37:26.966Z,29.07
2019-03-20T10:38:35.072Z,28.75
2019-03-20T10:39:43.360Z,28.52
2019-03-20T10:40:51.738Z,28.27
2019-03-20T10:42:01.483Z,28.41
2019-03-20T10:43:09.732Z,28.10
2019-03-20T10:44:17.996Z,28.17
2019-03-20T10:45:25.910Z,27.77
2019-03-20T10:46:34.101Z,27.59
2019-03-20T10:47:42.514Z,27.05
2019-03-20T10:48:50.913Z,27.23
2019-03-20T10:49:59.128Z,27.22
2019-03-20T10:51:07.166Z,26.73
2019-03-20T10:52:15.432Z,26.96
2019-03-20T10:53:23.528Z,26.27
2019-03-20T10:54:31.826Z,25.85
2019-03-20T10:55:40.029Z,25.63
2019-03-20T10:56:48.215Z,24.79
2019-03-20T10:57:56.273Z,24.76
2019-03-20T10:59:04.415Z,24.52
2019-03-20T11:00:24.594Z,24.06
2019-03-20T11:01:42.040Z,24.50
2019-03-20T11:02:42.648Z,24.18
2019-03-20T11:03:50.831Z,24.06
2019-03-20T11:04:58.818Z,23.69
2019-03-20T11:06:06.865Z,23.41
2019-03-20T11:07:15.126Z,23.69
2019-03-20T11:08:23.230Z,23.99
2019-03-20T11:09:31.125Z,24.06
2019-03-20T11:10:39.595Z,23.73
2019-03-20T11:11:47.664Z,24.24
2019-03-20T11:12:56.385Z,24.21
2019-03-20T11:14:04.614Z,23.68
2019-03-20T11:15:16.301Z,23.89
2019-03-20T11:16:24.705Z,24.02
2019-03-20T11:17:32.813Z,24.06
2019-03-20T11:18:40.989Z,23.87
2019-03-20T11:19:49.233Z,24.16
2019-03-20T11:20:57.369Z,24.27
2019-03-20T11:22:05.820Z,24.36
2019-03-20T11:23:13.951Z,24.56
2019-03-20T11:24:21.859Z,24.91
2019-03-20T11:25:30.745Z,24.77
2019-03-20T11:26:38.842Z,24.86
2019-03-20T11:27:47.088Z,24.76
2019-03-20T11:28:55.192Z,24.93
2019-03-20T11:30:03.506Z,24.94
2019-03-20T11:31:11.599Z,25.29
2019-03-20T11:32:19.456Z,25.22
2019-03-20T11:33:27.694Z,25.23
2019-03-20T11:34:36.099Z,25.38
2019-03-20T11:35:44.195Z,25.26
2019-03-20T11:36:52.476Z,25.41
2019-03-20T11:38:00.514Z,25.69
2019-03-20T11:39:10.566Z,25.68
2019-03-20T11:40:24.958Z,25.83
2019-03-20T11:41:33.107Z,25.67
2019-03-20T11:42:41.274Z,25.70
2019-03-20T11:43:49.273Z,25.74
2019-03-20T11:44:57.489Z,25.81
2019-03-20T11:46:05.694Z,25.93
2019-03-20T11:47:14.169Z,26.04
2019-03-20T11:48:22.309Z,26.04
2019-03-20T11:49:30.679Z,26.05
2019-03-20T11:50:44.667Z,26.03
2019-03-20T11:51:52.905Z,26.10
2019-03-20T11:53:01.235Z,26.14
2019-03-20T11:54:09.437Z,26.51
2019-03-20T11:55:17.719Z,26.62
2019-03-20T11:56:26.650Z,26.60
2019-03-20T11:57:34.834Z,26.64
2019-03-20T11:58:42.930Z,26.42
2019-03-20T11:59:51.210Z,26.48
2019-03-20T12:00:59.307Z,26.72
2019-03-20T12:02:07.826Z,26.35
2019-03-20T12:03:16.034Z,25.76
2019-03-20T12:04:24.130Z,26.74
2019-03-20T12:05:32.326Z,26.33
2019-03-20T12:06:40.479Z,26.40
2019-03-20T12:07:48.825Z,25.90
2019-03-20T12:08:56.821Z,25.30
2019-03-20T12:10:08.044Z,24.90
2019-03-20T12:11:16.188Z,24.65
2019-03-20T12:12:24.304Z,24.25
2019-03-20T12:13:32.404Z,24.23
2019-03-20T12:14:40.423Z,24.10
2019-03-20T12:15:48.702Z,23.80
2019-03-20T12:16:56.922Z,23.14
2019-03-20T12:18:05.198Z,23.13
2019-03-20T12:19:13.485Z,22.55
2019-03-20T12:20:27.983Z,22.06
2019-03-20T12:21:36.153Z,21.94
2019-03-20T12:22:44.726Z,21.96
2019-03-20T12:23:52.783Z,22.15
2019-03-20T12:25:00.903Z,22.48
2019-03-20T12:26:08.940Z,22.55
2019-03-20T12:27:17.251Z,22.59
2019-03-20T12:28:25.463Z,22.62
2019-03-20T12:29:33.844Z,22.86
2019-03-20T12:30:42.090Z,22.74
2019-03-20T12:31:50.745Z,22.63
2019-03-20T12:32:58.900Z,22.17
2019-03-20T12:34:07.064Z,21.73
2019-03-20T12:35:18.276Z,22.20
2019-03-20T12:36:26.568Z,22.49
2019-03-20T12:37:35.111Z,22.31
2019-03-20T12:38:43.339Z,21.68
2019-03-20T12:39:53.368Z,21.53
2019-03-20T12:41:01.393Z,21.54
2019-03-20T12:42:09.775Z,21.34
2019-03-20T12:43:18.262Z,21.24
2019-03-20T12:44:26.510Z,21.18
2019-03-20T12:45:36.780Z,21.27
2019-03-20T12:46:45.127Z,21.15
2019-03-20T12:47:53.274Z,21.43
2019-03-20T12:49:01.271Z,21.56
2019-03-20T12:50:12.979Z,21.66
2019-03-20T12:51:21.096Z,21.53
2019-03-20T12:52:29.500Z,21.68
2019-03-20T12:53:38.008Z,21.90
2019-03-20T12:54:46.116Z,21.89
2019-03-20T12:55:54.877Z,22.03
2019-03-20T12:57:03.333Z,22.18
2019-03-20T12:58:11.671Z,22.31
2019-03-20T12:59:20.029Z,22.30
2019-03-20T13:00:28.943Z,22.16
2019-03-20T13:01:37.248Z,22.36
2019-03-20T13:02:45.568Z,22.42
2019-03-20T13:03:54.177Z,22.42
2019-03-20T13:05:02.361Z,22.56
2019-03-20T13:06:10.460Z,22.47
2019-03-20T13:07:18.854Z,22.39
2019-03-20T13:08:27.230Z,22.38
2019-03-20T13:09:35.358Z,22.55
2019-03-20T13:10:43.573Z,22.59
2019-03-20T13:11:52.154Z,22.42
2019-03-20T13:13:00.234Z,22.42
2019-03-20T13:14:08.618Z,22.31
2019-03-20T13:15:20.013Z,22.56
2019-03-20T13:16:28.235Z,22.48
2019-03-20T13:17:36.253Z,22.65
2019-03-20T13:18:44.533Z,22.63
2019-03-20T13:19:52.946Z,22.80
2019-03-20T13:21:01.271Z,22.87
2019-03-20T13:22:09.558Z,23.27
2019-03-20T13:23:38.472Z,23.10
2019-03-20T13:24:46.732Z,23.17
2019-03-20T13:25:54.927Z,23.19
2019-03-20T13:27:02.904Z,23.28
2019-03-20T13:28:11.223Z,23.33
2019-03-20T13:29:19.510Z,23.50
2019-03-20T13:30:40.888Z,23.66
2019-03-20T13:31:48.931Z,23.59
2019-03-20T13:32:57.357Z,23.78
2019-03-20T13:34:05.753Z,23.78
2019-03-20T13:35:13.737Z,23.68
2019-03-20T13:36:21.872Z,23.08
2019-03-20T13:37:30.032Z,23.26
2019-03-20T13:38:38.332Z,23.26
2019-03-20T13:39:46.814Z,23.01
2019-03-20T13:40:55.019Z,23.08
2019-03-20T13:42:03.317Z,23.00
2019-03-20T13:43:11.392Z,23.00
2019-03-20T13:44:19.884Z,23.07
2019-03-20T13:45:30.202Z,23.03
2019-03-20T13:46:38.492Z,23.06
2019-03-20T13:47:46.603Z,23.14
2019-03-20T13:48:55.303Z,23.14
2019-03-20T13:50:03.447Z,23.19
2019-03-20T13:51:11.472Z,23.09
2019-03-20T13:52:19.809Z,23.15
2019-03-20T13:53:27.726Z,23.15
2019-03-20T13:54:36.112Z,23.04
2019-03-20T13:55:44.296Z,23.13
2019-03-20T13:56:52.700Z,23.10
2019-03-20T13:58:00.990Z,23.13
2019-03-20T13:59:08.975Z,23.23
2019-03-20T14:00:25.808Z,23.35
2019-03-20T14:01:33.862Z,23.46
2019-03-20T14:02:41.889Z,23.66
2019-03-20T14:03:49.973Z,23.68
2019-03-20T14:04:58.589Z,23.69
2019-03-20T14:06:07.020Z,23.76
2019-03-20T14:07:14.854Z,23.87
2019-03-20T14:08:22.977Z,23.87
2019-03-20T14:09:31.395Z,23.87
2019-03-20T14:10:49.450Z,24.00
2019-03-20T14:11:49.834Z,24.20
2019-03-20T14:12:58.351Z,24.19
2019-03-20T14:14:06.346Z,24.01
2019-03-20T14:15:17.296Z,23.89
2019-03-20T14:16:25.379Z,23.96
2019-03-20T14:17:33.902Z,23.98
2019-03-20T14:18:41.954Z,23.86
2019-03-20T14:19:50.305Z,23.70
2019-03-20T14:20:58.511Z,23.68
2019-03-20T14:22:06.696Z,23.86
2019-03-20T14:23:14.917Z,23.91
2019-03-20T14:24:23.018Z,24.06
2019-03-20T14:25:31.601Z,24.08
2019-03-20T14:26:40.403Z,23.91
2019-03-20T14:27:49.750Z,24.01
2019-03-20T14:28:58.351Z,23.98
2019-03-20T14:30:30.486Z,24.00
2019-03-20T14:31:38.832Z,23.91
2019-03-20T14:32:47.188Z,23.98
2019-03-20T14:33:55.531Z,23.99
2019-03-20T14:35:03.747Z,24.04
2019-03-20T14:36:12.595Z,24.12
2019-03-20T14:37:20.734Z,24.10
2019-03-20T14:38:29.026Z,24.14
2019-03-20T14:39:37.123Z,24.16
2019-03-20T14:40:45.337Z,24.17
2019-03-20T14:41:53.938Z,24.14
2019-03-20T14:43:02.199Z,24.13
2019-03-20T14:44:10.708Z,24.12
2019-03-20T14:45:19.582Z,24.24